Time;durP1;ratioP1;P1;durP2;ratioP2;P2;SDS_P1;SDS_P2;PMS_P1;PMS_P2;Temp;Humidity;BMP_temperature;BMP_pressure;BME280_temperature;BME280_humidity;BME280_pressure;Samples;Min_cycle;Max_cycle;Signal;HPM_P1;HPM_P2
2022/09/24 00:01:07;;;;;;;5.90;5.30;;;;;;;9.04;95.42;99110.15;109257;1276;22271;-63
2022/09/24 00:03:41;;;;;;;7.20;6.30;;;;;;;9.02;95.38;99105.73;109231;1277;23573;-63
2022/09/24 00:06:08;;;;;;;7.50;6.00;;;;;;;8.96;95.09;99106.04;109033;1277;138965;-63
2022/09/24 00:08:34;;;;;;;;;;;;;;;8.91;95.25;99104.64;109189;1276;22795;-63
2022/09/24 00:11:03;;;;;;;9.00;5.40;;;;;;;8.90;95.68;99107.09;109141;1276;124621;-63
2022/09/24 00:13:30;;;;;;;6.90;5.40;;;;;;;8.91;95.68;99107.96;109273;1274;22887;-63
2022/09/24 00:16:03;;;;;;;10.60;6.80;;;;;;;8.92;95.83;99106.95;109203;1276;138392;-63
2022/09/24 00:18:30;;;;;;;9.90;5.60;;;;;;;8.93;95.76;99107.49;109239;1276;22442;-63
2022/09/24 00:20:57;;;;;;;8.00;5.20;;;;;;;8.90;95.61;99107.58;109323;1275;23708;-63
2022/09/24 00:23:24;;;;;;;;;;;;;;;8.90;95.79;99106.48;109214;1277;138799;-63
2022/09/24 00:28:36;;;;;;;9.10;6.00;;;;;;;8.90;95.72;99101.91;109149;1277;138574;-63
2022/09/24 00:31:06;;;;;;;;;;;;;;;8.91;95.67;99103.39;109255;1276;22598;-63
2022/09/24 00:33:33;;;;;;;6.30;4.70;;;;;;;8.91;95.76;99102.80;109247;1276;23342;-64
2022/09/24 00:36:03;;;;;;;5.40;4.90;;;;;;;8.91;95.77;99098.40;109188;1275;139555;-64
2022/09/24 00:38:30;;;;;;;6.00;5.30;;;;;;;8.92;95.56;99099.50;109262;1276;22661;-63
2022/09/24 00:40:58;;;;;;;8.00;5.80;;;;;;;8.91;95.30;99095.63;109138;1276;139668;-63
2022/09/24 00:43:36;;;;;;;7.40;6.00;;;;;;;8.86;95.12;99092.64;109010;1278;22254;-63
2022/09/24 00:46:31;;;;;;;6.40;5.70;;;;;;;8.82;94.89;99090.14;109126;1274;138002;-63
2022/09/24 00:49:09;;;;;;;6.10;5.50;;;;;;;8.79;94.97;99090.84;109191;1276;22452;-64
2022/09/24 00:51:36;;;;;;;5.60;4.80;;;;;;;8.78;95.03;99088.23;109080;1276;22470;-64
2022/09/24 00:54:03;;;;;;;;;;;;;;;8.78;95.03;99087.73;109064;1277;137900;-63
2022/09/24 00:56:31;;;;;;;5.10;4.60;;;;;;;8.78;95.06;99089.54;109366;1275;22419;-63
2022/09/24 00:59:00;;;;;;;6.90;4.70;;;;;;;8.78;94.87;99091.21;109044;1274;138902;-64
2022/09/24 01:01:28;;;;;;;5.30;4.80;;;;;;;8.75;94.74;99090.36;109200;1277;22493;-63
2022/09/24 01:03:56;;;;;;;6.10;4.50;;;;;;;8.74;94.83;99087.26;109258;1275;138057;-63
2022/09/24 01:06:23;;;;;;;5.30;4.70;;;;;;;8.75;94.75;99086.40;109178;1277;23570;-63
2022/09/24 01:08:50;;;;;;;7.00;4.90;;;;;;;8.77;94.92;99089.90;109218;1274;23648;-63
2022/09/24 01:11:26;;;;;;;;;;;;;;;8.77;94.92;99085.88;109352;1274;138057;-63
2022/09/24 01:14:07;;;;;;;5.40;4.20;;;;;;;8.79;94.98;99081.77;109353;1275;22503;-63
2022/09/24 01:16:55;;;;;;;8.20;3.80;;;;;;;8.81;94.99;99077.27;109150;1276;139819;-63
2022/09/24 01:19:37;;;;;;;6.70;4.60;;;;;;;8.83;94.99;99074.08;109354;1274;22666;-63
2022/09/24 01:22:30;;;;;;;6.10;4.40;;;;;;;8.82;94.93;99079.39;109181;1274;139837;-63
2022/09/24 01:25:01;;;;;;;4.90;4.20;;;;;;;8.81;94.91;99076.01;109317;1275;23247;-63
2022/09/24 01:27:58;;;;;;;4.80;4.20;;;;;;;8.81;94.80;99075.79;109263;1277;22463;-62
2022/09/24 01:30:26;;;;;;;5.50;4.50;;;;;;;8.82;94.82;99074.01;109301;1274;22612;-63
2022/09/24 01:32:55;;;;;;;5.10;4.60;;;;;;;8.81;94.68;99075.95;109159;1275;23572;-63
2022/09/24 01:35:26;;;;;;;5.10;4.10;;;;;;;8.80;94.66;99072.59;109156;1275;139640;-63
2022/09/24 01:38:02;;;;;;;5.90;4.10;;;;;;;8.79;94.61;99074.92;109316;1276;22644;-63
2022/09/24 01:40:29;;;;;;;5.70;4.10;;;;;;;8.77;94.58;99077.02;108786;1276;138316;-62
2022/09/24 01:42:56;;;;;;;4.70;4.10;;;;;;;8.76;94.53;99072.52;109392;1274;22665;-64
2022/09/24 01:45:24;;;;;;;6.00;4.50;;;;;;;8.74;94.63;99073.46;108446;1275;1073551;-63
2022/09/24 01:48:53;;;;;;;5.40;4.80;;;;;;;8.77;94.58;99073.54;101984;1309;545531;-62
2022/09/24 01:51:38;;;;;;;5.10;4.30;;;;;;;8.74;94.56;99076.45;104258;1284;22569;-63
2022/09/24 01:54:11;;;;;;;5.40;4.80;;;;;;;8.73;94.55;99076.81;107963;1286;137850;-62
2022/09/24 01:56:44;;;;;;;6.20;5.10;;;;;;;8.71;94.45;99076.46;107844;1289;22610;-62
2022/09/24 01:59:18;;;;;;;5.10;4.60;;;;;;;8.67;94.37;99077.17;107710;1289;137278;-62
2022/09/24 02:01:57;;;;;;;6.70;4.60;;;;;;;8.64;94.37;99076.78;107436;1286;833795;-62
2022/09/24 02:04:24;;;;;;;5.00;4.50;;;;;;;8.60;94.39;99077.06;108005;1286;138172;-62
2022/09/24 02:07:03;;;;;;;8.50;5.40;;;;;;;8.57;94.48;99077.02;108148;1286;22495;-63
2022/09/24 02:09:35;;;;;;;6.40;4.50;;;;;;;8.53;94.42;99080.18;108387;1286;22615;-62
2022/09/24 02:12:13;;;;;;;5.00;4.50;;;;;;;8.50;94.63;99079.41;108212;1286;139212;-62
2022/09/24 02:14:43;;;;;;;6.00;5.40;;;;;;;8.49;94.86;99083.41;108214;1285;23292;-63
2022/09/24 02:17:10;;;;;;;5.60;5.00;;;;;;;8.48;94.97;99082.27;107830;1286;138688;-63
2022/09/24 02:19:37;;;;;;;;;;;;;;;8.47;95.08;99078.73;108371;1286;22513;-63
2022/09/24 02:22:05;;;;;;;6.50;4.40;;;;;;;8.49;95.16;99081.03;108169;1286;124559;-63
2022/09/24 02:24:56;;;;;;;9.90;5.60;;;;;;;8.51;95.35;99083.76;108226;1286;22461;-63
2022/09/24 02:27:27;;;;;;;6.30;5.30;;;;;;;8.52;95.26;99086.09;108217;1286;22498;-63
2022/09/24 02:29:55;;;;;;;5.30;4.80;;;;;;;8.51;95.19;99085.49;108108;1286;140182;-63
2022/09/24 02:32:22;;;;;;;6.40;5.80;;;;;;;8.52;95.30;99090.66;108130;1286;22481;-63
2022/09/24 02:34:51;;;;;;;7.90;5.60;;;;;;;8.51;95.44;99088.91;108218;1286;138092;-63
2022/09/24 02:37:19;;;;;;;6.10;5.10;;;;;;;8.51;95.46;99092.71;108148;1286;22469;-63
2022/09/24 02:39:47;;;;;;;6.00;5.30;;;;;;;8.51;95.48;99092.05;108064;1287;137658;-63
2022/09/24 02:42:13;;;;;;;7.20;4.80;;;;;;;8.50;95.35;99093.60;108314;1286;22491;-63
2022/09/24 02:44:40;;;;;;;;;;;;;;;8.48;95.34;99094.32;108208;1287;22961;-63
2022/09/24 02:47:07;;;;;;;8.40;4.80;;;;;;;8.49;95.51;99100.63;108237;1286;124975;-63
2022/09/24 02:49:34;;;;;;;5.20;4.70;;;;;;;8.46;95.48;99099.89;108399;1286;22303;-63
2022/09/24 02:52:01;;;;;;;6.40;5.30;;;;;;;8.45;95.49;99100.95;108369;1285;137829;-63
2022/09/24 02:54:27;;;;;;;6.70;5.20;;;;;;;8.44;95.56;99100.89;108168;1286;22534;-64
2022/09/24 02:56:54;;;;;;;;;;;;;;;8.43;95.56;99100.92;108325;1286;22685;-62
2022/09/24 02:59:21;;;;;;;6.10;4.50;;;;;;;8.42;95.64;99095.81;108142;1287;124090;-63
2022/09/24 03:01:48;;;;;;;6.10;5.20;;;;;;;8.43;95.78;99098.82;108323;1286;22465;-62
2022/09/24 03:04:16;;;;;;;4.90;4.40;;;;;;;8.46;95.89;99100.54;108192;1286;138088;-62
2022/09/24 03:06:42;;;;;;;;;;;;;;;8.48;95.81;99102.52;108353;1286;22499;-62
2022/09/24 03:09:12;;;;;;;5.20;4.70;;;;;;;8.48;95.77;99105.45;108271;1286;22442;-62
2022/09/24 03:11:39;;;;;;;5.80;5.30;;;;;;;8.52;95.91;99103.85;108219;1286;139405;-62
2022/09/24 03:14:06;;;;;;;4.90;4.40;;;;;;;8.53;95.85;99104.41;108237;1287;23093;-63
2022/09/24 03:16:33;;;;;;;6.10;4.90;;;;;;;8.51;95.60;99106.89;108192;1286;138144;-63
2022/09/24 03:19:00;;;;;;;6.20;5.00;;;;;;;8.49;95.50;99104.33;108101;1286;22459;-63
2022/09/24 03:21:27;;;;;;;;;;;;;;;8.49;95.47;99102.05;108350;1285;22503;-63
2022/09/24 03:23:53;;;;;;;5.70;5.00;;;;;;;8.48;95.42;99104.74;108190;1286;125061;-63
2022/09/24 03:26:20;;;;;;;;;;;;;;;8.43;95.37;99103.70;108440;1286;22735;-63
2022/09/24 03:28:47;;;;;;;5.80;4.60;;;;;;;8.42;95.36;99100.81;108260;1287;124269;-63
2022/09/24 03:31:13;;;;;;;;;;;;;;;8.43;95.56;99099.08;108150;1286;22476;-63
2022/09/24 03:33:42;;;;;;;6.50;4.30;;;;;;;8.44;95.70;99099.59;108355;1285;23234;-63
2022/09/24 03:36:18;;;;;;;4.70;4.20;;;;;;;8.44;95.74;99102.75;108295;1286;22484;-63
2022/09/24 03:38:45;;;;;;;6.20;4.20;;;;;;;8.46;95.73;99102.50;108339;1286;23575;-63
2022/09/24 03:41:12;;;;;;;5.10;4.30;;;;;;;8.46;95.57;99101.95;108298;1285;139046;-62
2022/09/24 03:43:39;;;;;;;6.70;4.50;;;;;;;8.46;95.52;99104.71;108254;1286;22467;-62
2022/09/24 03:46:06;;;;;;;6.50;4.30;;;;;;;8.48;95.63;99107.73;108195;1287;137848;-62
2022/09/24 03:48:34;;;;;;;5.80;4.00;;;;;;;8.51;95.57;99105.48;108147;1287;22533;-62
2022/09/24 03:51:05;;;;;;;5.40;4.00;;;;;;;8.52;95.51;99104.92;107861;1287;22448;-62
2022/09/24 03:53:32;;;;;;;3.80;3.50;;;;;;;8.55;95.62;99104.90;107916;1287;138173;-62
2022/09/24 03:56:01;;;;;;;6.20;3.60;;;;;;;8.57;95.36;99105.48;108174;1287;23281;-62
2022/09/24 03:58:30;;;;;;;4.40;3.90;;;;;;;8.58;95.26;99108.27;107874;1289;138640;-62
2022/09/24 04:00:57;;;;;;;3.70;3.40;;;;;;;8.58;95.22;99110.88;108256;1287;22490;-62
2022/09/24 04:03:24;;;;;;;5.20;3.90;;;;;;;8.59;95.18;99107.46;108131;1287;22561;-62
2022/09/24 04:05:50;;;;;;;12.20;4.90;;;;;;;8.59;95.07;99109.16;108065;1287;138445;-62
2022/09/24 04:08:20;;;;;;;;;;;;;;;8.59;94.86;99107.46;108346;1286;22594;-62
2022/09/24 04:10:47;;;;;;;7.30;3.70;;;;;;;8.57;94.91;99107.43;108018;1287;124465;-62
2022/09/24 04:13:14;;;;;;;5.50;4.80;;;;;;;8.55;94.90;99105.52;108235;1287;22540;-62
2022/09/24 04:15:41;;;;;;;7.20;5.00;;;;;;;8.57;95.09;99108.58;108443;1284;22463;-62
2022/09/24 04:18:08;;;;;;;;;;;;;;;8.56;94.96;99109.66;108529;1284;24040;-62
2022/09/24 04:20:35;;;;;;;6.30;3.60;;;;;;;8.56;94.89;99108.89;108411;1284;22432;-62
2022/09/24 04:23:02;;;;;;;6.60;4.30;;;;;;;8.54;94.91;99112.56;108363;1283;138937;-62
2022/09/24 04:25:30;;;;;;;4.40;3.90;;;;;;;8.52;94.92;99112.70;108593;1283;22456;-62
2022/09/24 04:27:58;;;;;;;6.60;4.30;;;;;;;8.50;94.88;99113.69;108402;1284;138867;-62
2022/09/24 04:30:25;;;;;;;9.30;3.80;;;;;;;8.52;94.83;99114.34;108608;1283;23457;-62
2022/09/24 04:32:52;;;;;;;4.80;3.90;;;;;;;8.54;95.02;99115.88;108472;1284;22744;-62
2022/09/24 04:35:22;;;;;;;;;;;;;;;8.55;94.90;99115.17;108518;1284;137590;-63
2022/09/24 04:37:49;;;;;;;6.80;4.60;;;;;;;8.55;94.78;99116.30;108497;1283;22485;-63
2022/09/24 04:40:16;;;;;;;9.00;6.00;;;;;;;8.55;94.94;99115.08;108485;1283;138611;-63
2022/09/24 04:42:45;;;;;;;11.20;6.40;;;;;;;8.58;94.97;99116.68;108562;1284;22463;-63
2022/09/24 04:45:12;;;;;;;9.20;6.10;;;;;;;8.61;95.04;99117.27;108408;1284;22419;-64
2022/09/24 04:47:39;;;;;;;5.60;4.60;;;;;;;8.61;94.79;99119.17;108450;1283;139508;-64
2022/09/24 04:50:07;;;;;;;5.70;4.00;;;;;;;8.62;94.74;99119.28;108445;1284;23147;-64
2022/09/24 04:52:34;;;;;;;6.80;4.30;;;;;;;8.61;94.57;99117.55;108506;1283;139255;-63
2022/09/24 04:55:01;;;;;;;8.90;4.60;;;;;;;8.58;94.30;99123.48;108571;1283;22557;-63
2022/09/24 04:57:27;;;;;;;;;;;;;;;8.54;94.35;99121.04;108476;1283;22697;-63
2022/09/24 04:59:54;;;;;;;6.70;3.90;;;;;;;8.55;94.47;99121.04;108556;1283;124641;-63
2022/09/24 05:02:22;;;;;;;;;;;;;;;8.54;94.52;99121.80;108633;1283;22581;-63
2022/09/24 05:04:49;;;;;;;4.80;3.90;;;;;;;8.54;94.52;99122.88;108555;1283;125682;-63
2022/09/24 05:07:16;;;;;;;4.60;3.70;;;;;;;8.55;94.75;99123.92;108627;1283;23329;-63
2022/09/24 05:09:43;;;;;;;;;;;;;;;8.56;94.80;99123.13;108633;1284;137760;-62
2022/09/24 05:12:10;;;;;;;4.80;4.00;;;;;;;8.54;94.57;99123.86;108528;1284;23215;-63
2022/09/24 05:14:36;;;;;;;5.80;3.60;;;;;;;8.50;94.64;99123.83;108575;1284;22571;-64
2022/09/24 05:17:04;;;;;;;;;;;;;;;8.48;94.67;99122.29;108413;1283;138351;-63
2022/09/24 05:19:30;;;;;;;6.20;3.90;;;;;;;8.49;94.78;99125.23;108383;1284;22521;-63
2022/09/24 05:21:57;;;;;;;;;;;;;;;8.49;94.93;99120.45;108453;1284;138922;-64
2022/09/24 05:24:24;;;;;;;4.70;3.30;;;;;;;8.49;94.90;99119.70;108548;1282;22445;-64
2022/09/24 05:27:09;;;;;;;4.70;3.40;;;;;;;8.52;95.09;99123.40;108444;1284;22596;-63
2022/09/24 05:29:37;;;;;;;5.20;3.60;;;;;;;8.55;95.07;99125.06;108326;1283;138120;-63
2022/09/24 05:32:05;;;;;;;5.10;3.70;;;;;;;8.56;95.11;99124.86;108605;1283;23660;-64
2022/09/24 05:34:32;;;;;;;6.60;4.10;;;;;;;8.59;95.04;99125.98;108461;1283;138505;-63
2022/09/24 05:37:00;;;;;;;4.10;3.70;;;;;;;8.60;94.99;99128.44;108617;1283;23256;-64
2022/09/24 05:39:27;;;;;;;6.60;3.80;;;;;;;8.62;95.02;99128.13;108689;1283;23250;-63
2022/09/24 05:42:03;;;;;;;7.10;4.10;;;;;;;8.61;94.79;99126.94;108443;1283;137329;-64
2022/09/24 05:44:30;;;;;;;4.50;4.00;;;;;;;8.62;94.80;99123.86;108667;1283;22601;-63
2022/09/24 05:46:57;;;;;;;4.80;4.20;;;;;;;8.65;94.88;99124.43;108800;1278;138675;-63
2022/09/24 05:49:23;;;;;;;;;;;;;;;8.67;94.80;99126.83;108971;1280;23392;-63
2022/09/24 05:51:50;;;;;;;5.20;4.50;;;;;;;8.68;94.56;99124.92;108814;1280;124315;-63
2022/09/24 05:54:17;;;;;;;;;;;;;;;8.67;94.48;99123.61;108758;1281;22492;-63
2022/09/24 05:56:44;;;;;;;6.20;3.80;;;;;;;8.67;94.44;99121.98;108957;1280;23581;-63
2022/09/24 05:59:11;;;;;;;8.40;4.90;;;;;;;8.68;94.31;99124.77;108864;1280;138295;-64
2022/09/24 06:01:38;;;;;;;5.00;4.20;;;;;;;8.68;94.20;99125.30;108879;1281;22539;-63
2022/09/24 06:04:05;;;;;;;8.60;4.00;;;;;;;8.71;94.30;99119.87;108618;1281;138728;-63
2022/09/24 06:06:34;;;;;;;4.50;3.90;;;;;;;8.74;94.27;99124.05;108879;1280;22551;-64
2022/09/24 06:09:01;;;;;;;;;;;;;;;8.78;94.32;99125.13;108785;1281;23487;-63
2022/09/24 06:11:33;;;;;;;5.10;3.50;;;;;;;8.81;93.93;99128.82;108679;1281;125384;-63
2022/09/24 06:14:07;;;;;;;5.10;3.90;;;;;;;8.82;93.75;99129.27;108690;1281;22444;-63
2022/09/24 06:16:34;;;;;;;5.50;4.20;;;;;;;8.81;93.30;99133.05;108692;1281;138654;-63
2022/09/24 06:19:01;;;;;;;4.50;3.90;;;;;;;8.82;93.36;99137.35;108853;1281;23159;-63
2022/09/24 06:21:28;;;;;;;6.00;3.70;;;;;;;8.83;93.31;99138.84;108743;1281;23800;-63
2022/09/24 06:23:55;;;;;;;;;;;;;;;8.84;93.06;99140.53;108868;1279;138634;-64
2022/09/24 06:26:21;;;;;;;6.80;3.70;;;;;;;8.82;92.68;99137.90;108713;1281;22503;-63
2022/09/24 06:28:48;;;;;;;;;;;;;;;8.80;92.17;99142.46;108916;1279;138173;-63
2022/09/24 06:31:15;;;;;;;4.50;3.20;;;;;;;8.77;92.03;99149.45;108925;1279;23428;-64
2022/09/24 06:33:42;;;;;;;;;;;;;;;8.76;92.21;99150.14;109003;1279;23253;-63
2022/09/24 06:36:09;;;;;;;5.20;4.20;;;;;;;8.77;92.38;99151.08;108924;1279;23569;-64
2022/09/24 06:38:38;;;;;;;5.00;3.60;;;;;;;8.81;92.46;99153.16;108952;1280;22420;-63
2022/09/24 06:41:05;;;;;;;9.00;3.30;;;;;;;8.84;92.14;99150.80;108733;1280;140330;-63
2022/09/24 06:43:32;;;;;;;8.30;3.70;;;;;;;8.87;91.98;99151.65;109067;1277;22486;-64
2022/09/24 06:45:59;;;;;;;4.60;3.60;;;;;;;8.90;92.17;99155.44;108879;1279;138621;-63
2022/09/24 06:48:26;;;;;;;6.80;3.40;;;;;;;8.97;92.23;99158.05;108854;1280;22488;-64
2022/09/24 06:50:56;;;;;;;7.80;4.50;;;;;;;9.03;92.01;99160.63;108948;1280;23039;-64
2022/09/24 06:53:23;;;;;;;8.60;5.00;;;;;;;9.11;92.15;99161.17;108857;1280;137866;-64
2022/09/24 06:55:49;;;;;;;;;;;;;;;9.18;91.78;99158.66;108923;1280;22504;-64
2022/09/24 06:58:18;;;;;;;51.10;31.00;;;;;;;9.24;91.42;99160.27;108965;1278;125105;-63
2022/09/24 07:01:01;;;;;;;26.10;17.00;;;;;;;9.29;91.33;99162.05;108784;1281;22472;-64
2022/09/24 07:03:31;;;;;;;7.90;6.30;;;;;;;9.37;90.99;99166.37;109008;1280;22496;-63
2022/09/24 07:06:00;;;;;;;4.40;3.80;;;;;;;9.43;90.72;99166.75;108880;1279;137979;-63
2022/09/24 07:08:35;;;;;;;5.10;3.90;;;;;;;9.48;89.86;99165.77;108904;1279;23958;-63
2022/09/24 07:11:01;;;;;;;7.20;6.50;;;;;;;9.50;89.52;99166.48;109011;1277;140157;-63
2022/09/24 07:13:29;;;;;;;;;;;;;;;9.52;89.63;99165.80;108721;1281;22502;-64
2022/09/24 07:15:56;;;;;;;5.00;3.80;;;;;;;9.54;89.31;99167.00;108661;1281;126103;-62
2022/09/24 07:18:22;;;;;;;;;;;;;;;9.57;89.05;99172.52;108944;1280;22459;-63
2022/09/24 07:20:53;;;;;;;4.90;3.90;;;;;;;9.60;88.30;99175.16;108977;1279;22451;-64
2022/09/24 07:23:20;;;;;;;7.50;3.70;;;;;;;9.61;87.90;99176.63;108827;1280;139166;-63
2022/09/24 07:25:47;;;;;;;9.70;3.60;;;;;;;9.62;86.99;99182.30;109001;1280;22472;-63
2022/09/24 07:28:17;;;;;;;4.30;3.00;;;;;;;9.61;86.64;99182.29;108845;1280;138300;-61
2022/09/24 07:30:44;;;;;;;5.80;3.60;;;;;;;9.62;86.51;99186.33;108681;1281;22469;-62
2022/09/24 07:33:11;;;;;;;;;;;;;;;9.63;86.36;99189.45;108982;1280;23374;-62
2022/09/24 07:35:38;;;;;;;3.30;3.00;;;;;;;9.65;85.73;99187.67;108963;1280;124454;-62
2022/09/24 07:38:06;;;;;;;9.00;6.10;;;;;;;9.65;85.32;99186.04;108652;1280;23592;-62
2022/09/24 07:40:33;;;;;;;14.90;8.40;;;;;;;9.66;85.32;99184.58;108789;1280;139314;-62
2022/09/24 07:43:00;;;;;;;47.00;30.20;;;;;;;9.69;85.49;99183.65;108890;1280;22338;-61
2022/09/24 07:45:28;;;;;;;;;;;;;;;9.74;85.21;99183.55;108959;1280;22490;-61
2022/09/24 07:47:59;;;;;;;20.60;13.70;;;;;;;9.79;85.33;99186.84;108613;1281;125444;-62
2022/09/24 07:50:27;;;;;;;18.40;15.50;;;;;;;9.89;85.54;99182.50;108896;1279;22466;-62
2022/09/24 07:52:54;;;;;;;6.50;4.40;;;;;;;10.01;85.82;99183.17;108786;1280;139421;-62
2022/09/24 07:55:21;;;;;;;;;;;;;;;10.12;85.28;99188.36;108918;1279;22614;-61
2022/09/24 07:57:48;;;;;;;3.20;2.80;;;;;;;10.22;84.39;99187.52;108854;1277;124353;-62
2022/09/24 08:00:16;;;;;;;7.40;4.70;;;;;;;10.28;82.58;99190.98;108623;1279;22691;-62
2022/09/24 08:02:44;;;;;;;4.20;3.80;;;;;;;10.27;80.61;99196.26;108967;1278;22566;-62
2022/09/24 08:05:11;;;;;;;10.90;7.50;;;;;;;10.20;80.24;99196.23;108756;1277;139804;-62
2022/09/24 08:07:38;;;;;;;4.40;3.00;;;;;;;10.16;81.09;99197.42;108839;1278;22476;-62
2022/09/24 08:10:05;;;;;;;;;;;;;;;10.19;81.44;99200.85;108935;1278;140002;-62
2022/09/24 08:12:32;;;;;;;9.60;4.30;;;;;;;10.25;81.60;99203.71;108993;1278;22517;-62
2022/09/24 08:14:59;;;;;;;7.60;4.80;;;;;;;10.33;81.41;99198.70;109078;1278;22416;-63
2022/09/24 08:17:25;;;;;;;;;;;;;;;10.42;81.11;99200.70;108930;1277;138829;-63
2022/09/24 08:19:55;;;;;;;13.40;5.50;;;;;;;10.48;80.46;99198.99;108957;1279;23670;-63
2022/09/24 08:22:23;;;;;;;7.30;3.90;;;;;;;10.47;79.74;99197.09;108906;1277;139472;-63
2022/09/24 08:24:51;;;;;;;4.20;3.20;;;;;;;10.48;79.94;99200.85;108847;1279;23422;-63
2022/09/24 08:27:22;;;;;;;4.20;2.70;;;;;;;10.50;79.86;99200.91;109064;1277;22483;-63
2022/09/24 08:29:50;;;;;;;4.70;3.60;;;;;;;10.56;80.13;99199.67;108869;1280;139882;-63
2022/09/24 08:32:16;;;;;;;3.60;2.30;;;;;;;10.67;80.67;99199.73;109020;1278;22551;-63
2022/09/24 08:34:44;;;;;;;;;;;;;;;10.81;80.52;99195.75;108984;1277;138595;-63
2022/09/24 08:37:12;;;;;;;7.20;4.40;;;;;;;10.96;80.67;99194.53;108978;1279;22543;-65
2022/09/24 08:39:39;;;;;;;6.90;3.90;;;;;;;11.09;78.76;99195.89;108921;1279;22506;-64
2022/09/24 08:42:05;;;;;;;;;;;;;;;11.19;77.00;99198.73;108853;1277;138145;-65
2022/09/24 08:47:33;;;;;;;3.00;2.50;;;;;;;11.29;75.98;99199.69;108929;1278;138506;-65
2022/09/24 08:50:12;;;;;;;4.90;2.40;;;;;;;11.38;76.46;99197.09;109105;1277;22408;-64
2022/09/24 08:52:44;;;;;;;3.50;2.40;;;;;;;11.46;76.52;99198.94;108665;1279;137988;-65
2022/09/24 08:55:21;;;;;;;2.30;1.90;;;;;;;11.53;75.10;99198.78;109036;1279;22416;-65
2022/09/24 08:57:58;;;;;;;2.40;2.20;;;;;;;11.57;74.15;99201.13;108801;1278;138453;-64
2022/09/24 09:00:28;;;;;;;3.40;2.60;;;;;;;11.58;73.28;99207.51;108889;1280;23348;-64
2022/09/24 09:03:02;;;;;;;2.60;2.40;;;;;;;11.53;72.86;99204.02;108885;1280;22472;-63
2022/09/24 09:05:43;;;;;;;4.00;2.60;;;;;;;11.46;73.62;99207.39;108911;1280;138587;-64
2022/09/24 09:08:33;;;;;;;3.10;2.60;;;;;;;11.40;74.52;99202.86;109008;1279;22337;-64
2022/09/24 09:11:22;;;;;;;2.80;2.50;;;;;;;11.34;73.98;99201.83;108824;1280;140390;-62
2022/09/24 09:13:56;;;;;;;2.90;2.40;;;;;;;11.25;74.09;99203.23;108953;1279;22438;-62
2022/09/24 09:16:26;;;;;;;3.60;2.70;;;;;;;11.20;74.87;99205.30;108908;1279;139350;-62
2022/09/24 09:18:57;;;;;;;3.40;2.70;;;;;;;11.18;74.88;99208.13;109053;1279;23177;-62
2022/09/24 09:21:40;;;;;;;5.60;2.60;;;;;;;11.18;74.91;99205.39;108748;1280;22529;-62
2022/09/24 09:24:23;;;;;;;3.50;2.70;;;;;;;11.16;74.56;99202.00;108900;1280;138031;-61
2022/09/24 09:26:52;;;;;;;5.00;2.20;;;;;;;11.16;74.79;99202.88;108870;1280;22428;-63
2022/09/24 09:29:21;;;;;;;5.30;3.30;;;;;;;11.16;74.17;99203.09;108930;1280;138762;-63
2022/09/24 09:32:03;;;;;;;6.20;2.80;;;;;;;11.14;74.14;99205.48;108930;1280;23298;-63
2022/09/24 09:34:39;;;;;;;3.50;1.80;;;;;;;11.11;72.82;99205.64;108888;1278;137938;-63
2022/09/24 09:37:51;;;;;;;4.50;2.00;;;;;;;11.08;72.66;99206.25;108832;1279;22419;-63
2022/09/24 09:40:40;;;;;;;3.00;2.20;;;;;;;11.02;73.30;99207.26;108065;1287;138710;-63
2022/09/24 09:43:09;;;;;;;3.10;2.30;;;;;;;11.03;74.38;99213.52;108110;1286;22616;-62
2022/09/24 09:45:46;;;;;;;3.30;2.40;;;;;;;11.00;75.46;99221.20;108506;1282;22471;-62
2022/09/24 09:48:15;;;;;;;5.70;2.20;;;;;;;10.92;76.34;99216.40;108472;1282;23406;-62
2022/09/24 09:50:49;;;;;;;9.70;2.70;;;;;;;10.89;76.81;99212.35;108383;1282;22573;-62
2022/09/24 09:53:20;;;;;;;4.60;2.00;;;;;;;10.85;77.21;99208.99;108521;1280;139318;-63
2022/09/24 09:55:56;;;;;;;7.60;2.40;;;;;;;10.81;78.14;99206.78;108508;1283;22599;-63
2022/09/24 09:58:24;;;;;;;6.30;2.50;;;;;;;10.77;78.76;99200.21;108376;1284;140263;-63
2022/09/24 10:00:51;;;;;;;4.10;3.00;;;;;;;10.76;79.54;99196.98;108523;1282;22588;-62
2022/09/24 10:03:21;;;;;;;;;;;;;;;10.77;80.08;99201.14;108401;1283;23715;-62
2022/09/24 10:05:55;;;;;;;3.70;2.90;;;;;;;10.77;80.55;99200.38;108410;1284;125430;-61
2022/09/24 10:08:22;;;;;;;5.00;3.30;;;;;;;10.75;81.09;99199.76;108460;1284;23286;-61
2022/09/24 10:10:59;;;;;;;7.30;4.40;;;;;;;10.71;81.81;99204.37;108652;1276;138138;-61
2022/09/24 10:13:26;;;;;;;5.90;4.00;;;;;;;10.69;82.12;99204.20;109258;1276;22527;-61
2022/09/24 10:15:55;;;;;;;4.80;3.40;;;;;;;10.68;82.57;99203.11;109120;1276;139491;-61
2022/09/24 10:18:38;;;;;;;6.50;3.70;;;;;;;10.68;82.49;99202.84;109229;1275;22657;-62
2022/09/24 10:21:08;;;;;;;7.10;3.00;;;;;;;10.65;82.68;99198.15;109289;1275;22542;-62
2022/09/24 10:23:39;;;;;;;4.20;2.60;;;;;;;10.63;82.40;99196.35;109118;1276;139098;-61
2022/09/24 10:26:05;;;;;;;3.90;3.30;;;;;;;10.65;83.03;99195.15;109093;1275;22660;-61
2022/09/24 10:31:25;;;;;;;3.40;2.60;;;;;;;10.83;83.92;99189.92;109396;1274;22269;-63
2022/09/24 10:33:54;;;;;;;4.80;2.80;;;;;;;10.95;83.30;99188.87;109078;1276;138555;-63
2022/09/24 10:36:26;;;;;;;2.90;2.50;;;;;;;11.06;81.46;99185.36;109303;1274;22551;-63
2022/09/24 10:39:13;;;;;;;2.60;2.40;;;;;;;11.13;80.69;99184.98;109234;1275;24235;-63
2022/09/24 10:41:47;;;;;;;4.20;2.50;;;;;;;11.19;80.68;99185.49;109172;1276;139871;-63
2022/09/24 10:44:13;;;;;;;5.10;2.50;;;;;;;11.22;79.97;99184.80;109309;1276;22567;-63
2022/09/24 10:46:40;;;;;;;;;;;;;;;11.23;78.49;99190.02;109269;1274;138655;-63
2022/09/24 10:49:44;;;;;;;2.90;2.10;;;;;;;11.19;76.53;99191.98;109291;1276;22680;-63
2022/09/24 10:52:17;;;;;;;4.90;1.80;;;;;;;11.13;76.93;99193.16;109173;1275;138389;-63
2022/09/24 10:55:25;;;;;;;3.20;1.90;;;;;;;11.13;76.81;99195.88;109283;1275;22435;-63
2022/09/24 10:58:01;;;;;;;3.70;2.00;;;;;;;11.13;76.38;99201.11;108752;1280;139028;-62
2022/09/24 11:00:37;;;;;;;2.90;1.90;;;;;;;11.15;76.30;99199.54;108544;1281;22474;-63
2022/09/24 11:03:23;;;;;;;2.30;2.10;;;;;;;11.20;75.67;99200.39;108639;1281;22502;-63
2022/09/24 11:05:55;;;;;;;2.50;1.70;;;;;;;11.25;75.89;99197.33;108827;1279;138175;-63
2022/09/24 11:08:44;;;;;;;2.50;1.80;;;;;;;11.30;75.49;99201.27;108737;1280;22453;-63
2022/09/24 11:11:36;;;;;;;2.90;1.60;;;;;;;11.35;74.51;99194.79;108653;1280;138984;-63
2022/09/24 11:14:08;;;;;;;1.60;1.40;;;;;;;11.43;74.02;99194.30;108764;1281;22770;-63
2022/09/24 11:16:51;;;;;;;1.90;1.60;;;;;;;11.51;73.82;99198.58;108679;1280;139052;-63
2022/09/24 11:19:32;;;;;;;2.10;1.80;;;;;;;11.58;72.76;99203.09;108949;1280;22482;-63
2022/09/24 11:22:14;;;;;;;3.30;2.10;;;;;;;11.61;72.20;99201.41;108499;1280;138148;-63
2022/09/24 11:25:00;;;;;;;2.60;1.80;;;;;;;11.56;71.97;99195.13;108714;1280;22511;-62
2022/09/24 11:27:37;;;;;;;2.60;1.80;;;;;;;11.54;72.32;99195.02;108875;1280;23295;-62
2022/09/24 11:30:18;;;;;;;4.90;1.60;;;;;;;11.55;71.76;99194.41;108964;1276;137646;-62
2022/09/24 11:33:11;;;;;;;5.10;2.50;;;;;;;11.57;71.23;99191.30;109424;1274;22519;-63
2022/09/24 11:36:00;;;;;;;1.50;1.20;;;;;;;11.63;70.62;99193.72;108665;1280;137392;-64
2022/09/24 11:38:38;;;;;;;1.90;1.50;;;;;;;11.74;70.42;99188.97;108718;1280;23266;-64
2022/09/24 11:41:42;;;;;;;1.90;1.70;;;;;;;11.89;70.80;99188.83;108795;1280;138912;-64
2022/09/24 11:44:46;;;;;;;3.60;2.00;;;;;;;12.08;70.76;99188.09;108888;1280;22535;-64
2022/09/24 11:47:32;;;;;;;3.10;1.40;;;;;;;12.23;70.31;99184.23;108759;1280;139750;-64
2022/09/24 11:50:25;;;;;;;2.10;1.80;;;;;;;12.32;69.22;99190.42;108795;1280;22356;-63
2022/09/24 11:53:00;;;;;;;1.90;1.60;;;;;;;12.34;68.42;99192.45;108603;1281;138380;-64
2022/09/24 11:55:34;;;;;;;3.70;1.50;;;;;;;12.32;67.99;99201.58;108769;1280;22479;-64
2022/09/24 11:58:15;;;;;;;3.80;1.10;;;;;;;12.22;66.31;99209.08;108654;1280;137520;-64
2022/09/24 12:00:54;;;;;;;1.80;1.10;;;;;;;12.04;65.12;99211.35;108593;1281;22471;-64
2022/09/24 12:03:34;;;;;;;1.50;1.10;;;;;;;11.88;65.29;99218.02;108655;1281;23489;-64
2022/09/24 12:06:06;;;;;;;1.60;1.40;;;;;;;11.79;66.80;99230.76;108406;1283;137565;-64